Wind From: 13-12-2017 10:08 Until: 14-12-2017 06:00 warning for: Wind Level: Yellow info button

Although rather usual in this region, locally or potentially dangerous phenomena are expected. (such as local winds, summer thunderstorms, rising streams or high waves) Be aware and pay attention to the latest weather updates, especially if you carry out activities exposed to weather or close to a stream or shoreline. 


Meteo18 Weather Cam more information Meteo18 Weather Cam


Thunder radar more information blitzortung!


Rain radar more information rain snow radar


Visit our other weather sites:

Template documentation
and downloads

And another site



Weather Underground History page Text

Daily Summary for May 7, 2017 Units:  Both    English   Metric
« Previous Day
Next Day »
Daily Weekly Monthly Yearly Custom
  High: Low: Average:
Temperature: 59.5 °F /  15.3 °C 49.6 °F /  9.8 °C 54 °F /  12.2 °C
Dew Point: 51.1 °F /  10.6 °C 47.7 °F /  8.7 °C 49.5 °F /  9.7 °C
Humidity: 95 % 66 % 85 %
Wind Speed: 16 mph /  25.7 km/h - 4.3 mph /  7 km/h
Wind Gust: 21 mph /  33.8 km/h - -
Wind:- - West
Pressure: 30.2 in /  1021.9 hPa 30 in /  1015.8 hPa -
Precipitation: 0.03 in /  0.8 mm    
Historical Graphs
 
 
Tabular Data for May 7, 2017
Time Temperature Dew Point Pressure Wind Wind Speed Wind Gust Humidity Rainfall Rate (Hourly)
00:02 54 °F /  12.2 °C 50.7 °F /  10.4 °C 30 in /  1015.8 hPa SW 4 mph /  6.4 km/h 20 mph /  32.2 km/h 89 % 0 in /  0.0 mm
00:07 54 °F /  12.2 °C 50.7 °F /  10.4 °C 30 in /  1015.8 hPa WSW 8 mph /  12.9 km/h 16 mph /  25.7 km/h 89 % 0 in /  0.0 mm
00:12 54 °F /  12.2 °C 50.7 °F /  10.4 °C 30 in /  1015.8 hPa SW 5 mph /  8.0 km/h 16 mph /  25.7 km/h 89 % 0 in /  0.0 mm
00:17 54 °F /  12.2 °C 51.1 °F /  10.6 °C 30 in /  1015.8 hPa SW 6 mph /  9.7 km/h 14 mph /  22.5 km/h 90 % 0 in /  0.0 mm
00:22 53.8 °F /  12.1 °C 50.9 °F /  10.5 °C 30 in /  1015.8 hPa WSW 7 mph /  11.3 km/h 14 mph /  22.5 km/h 90 % 0 in /  0.0 mm
00:32 53.8 °F /  12.1 °C 50.9 °F /  10.5 °C 30 in /  1016.1 hPa West 6 mph /  9.7 km/h 16 mph /  25.7 km/h 90 % 0 in /  0.0 mm
00:37 53.8 °F /  12.1 °C 50.9 °F /  10.5 °C 30 in /  1016.1 hPa WSW 11 mph /  17.7 km/h 19 mph /  30.6 km/h 90 % 0 in /  0.0 mm
00:42 53.8 °F /  12.1 °C 50.9 °F /  10.5 °C 30 in /  1016.1 hPa West 13 mph /  20.9 km/h 19 mph /  30.6 km/h 90 % 0 in /  0.0 mm
00:47 53.6 °F /  12.0 °C 50.7 °F /  10.4 °C 30 in /  1016.1 hPa SW 8 mph /  12.9 km/h 19 mph /  30.6 km/h 90 % 0 in /  0.0 mm
00:52 53.4 °F /  11.9 °C 50.5 °F /  10.3 °C 30 in /  1016.1 hPa West 13 mph /  20.9 km/h 16 mph /  25.7 km/h 90 % 0 in /  0.0 mm
00:57 53.4 °F /  11.9 °C 50.5 °F /  10.3 °C 30 in /  1016.1 hPa SW 5 mph /  8.0 km/h 17 mph /  27.4 km/h 90 % 0 in /  0.0 mm
01:02 53.2 °F /  11.8 °C 50.4 °F /  10.2 °C 30 in /  1016.5 hPa WSW 5 mph /  8.0 km/h 17 mph /  27.4 km/h 90 % 0 in /  0.0 mm
01:07 53.2 °F /  11.8 °C 50.4 °F /  10.2 °C 30 in /  1016.5 hPa SW 11 mph /  17.7 km/h 17 mph /  27.4 km/h 90 % 0 in /  0.0 mm
01:12 53.1 °F /  11.7 °C 50.2 °F /  10.1 °C 30 in /  1016.5 hPa WSW 6 mph /  9.7 km/h 21 mph /  33.8 km/h 90 % 0 in /  0.0 mm
01:17 53.1 °F /  11.7 °C 50.2 °F /  10.1 °C 30 in /  1016.5 hPa West 12 mph /  19.3 km/h 21 mph /  33.8 km/h 90 % 0 in /  0.0 mm
01:22 53.1 °F /  11.7 °C 50.2 °F /  10.1 °C 30 in /  1016.5 hPa WSW 12 mph /  19.3 km/h 17 mph /  27.4 km/h 90 % 0 in /  0.0 mm
01:32 52.9 °F /  11.6 °C 50 °F /  10.0 °C 30 in /  1016.5 hPa West 11 mph /  17.7 km/h 17 mph /  27.4 km/h 90 % 0 in /  0.0 mm
01:37 52.9 °F /  11.6 °C 50 °F /  10.0 °C 30 in /  1016.5 hPa WSW 7 mph /  11.3 km/h 17 mph /  27.4 km/h 90 % 0 in /  0.0 mm
01:42 52.9 °F /  11.6 °C 50 °F /  10.0 °C 30 in /  1016.5 hPa WSW 16 mph /  25.7 km/h 17 mph /  27.4 km/h 90 % 0 in /  0.0 mm
01:47 52.9 °F /  11.6 °C 50 °F /  10.0 °C 30 in /  1016.5 hPa SW 9 mph /  14.5 km/h 17 mph /  27.4 km/h 90 % 0 in /  0.0 mm
01:52 52.9 °F /  11.6 °C 50 °F /  10.0 °C 30 in /  1016.5 hPa West 11 mph /  17.7 km/h 17 mph /  27.4 km/h 90 % 0 in /  0.0 mm
01:57 52.7 °F /  11.5 °C 49.8 °F /  9.9 °C 30 in /  1016.5 hPa WSW 7 mph /  11.3 km/h 17 mph /  27.4 km/h 90 % 0 in /  0.0 mm
02:02 52.7 °F /  11.5 °C 49.8 °F /  9.9 °C 30 in /  1016.5 hPa WSW 11 mph /  17.7 km/h 14 mph /  22.5 km/h 90 % 0 in /  0.0 mm
02:07 52.5 °F /  11.4 °C 49.6 °F /  9.8 °C 30 in /  1016.5 hPa West 5 mph /  8.0 km/h 13 mph /  20.9 km/h 90 % 0 in /  0.0 mm
02:12 52.5 °F /  11.4 °C 49.6 °F /  9.8 °C 30 in /  1016.5 hPa SW 5 mph /  8.0 km/h 13 mph /  20.9 km/h 90 % 0 in /  0.0 mm
02:17 52.5 °F /  11.4 °C 49.6 °F /  9.8 °C 30 in /  1016.5 hPa WSW 9 mph /  14.5 km/h 13 mph /  20.9 km/h 90 % 0 in /  0.0 mm
02:22 52.5 °F /  11.4 °C 49.6 °F /  9.8 °C 30 in /  1016.5 hPa WSW 8 mph /  12.9 km/h 14 mph /  22.5 km/h 90 % 0 in /  0.0 mm
02:27 52.5 °F /  11.4 °C 49.6 °F /  9.8 °C 30 in /  1016.5 hPa WSW 11 mph /  17.7 km/h 14 mph /  22.5 km/h 90 % 0 in /  0.0 mm
02:32 52.3 °F /  11.3 °C 49.5 °F /  9.7 °C 30 in /  1016.5 hPa SW 8 mph /  12.9 km/h 14 mph /  22.5 km/h 90 % 0 in /  0.0 mm
02:37 52.3 °F /  11.3 °C 49.5 °F /  9.7 °C 30 in /  1016.5 hPa SW 9 mph /  14.5 km/h 16 mph /  25.7 km/h 90 % 0 in /  0.0 mm
02:42 52.3 °F /  11.3 °C 49.5 °F /  9.7 °C 30 in /  1016.5 hPa SSW 12 mph /  19.3 km/h 16 mph /  25.7 km/h 90 % 0 in /  0.0 mm
02:47 52.3 °F /  11.3 °C 49.8 °F /  9.9 °C 30 in /  1016.8 hPa West 4 mph /  6.4 km/h 16 mph /  25.7 km/h 91 % 0 in /  0.0 mm
02:52 52.2 °F /  11.2 °C 49.6 °F /  9.8 °C 30 in /  1016.8 hPa WSW 9 mph /  14.5 km/h 16 mph /  25.7 km/h 91 % 0 in /  0.0 mm
02:57 52.2 °F /  11.2 °C 49.6 °F /  9.8 °C 30 in /  1016.8 hPa WSW 13 mph /  20.9 km/h 16 mph /  25.7 km/h 91 % 0 in /  0.0 mm
03:02 52.2 °F /  11.2 °C 49.6 °F /  9.8 °C 30 in /  1016.8 hPa West 10 mph /  16.1 km/h 14 mph /  22.5 km/h 91 % 0 in /  0.0 mm
03:07 52.2 °F /  11.2 °C 49.6 °F /  9.8 °C 30 in /  1016.8 hPa WSW 4 mph /  6.4 km/h 15 mph /  24.1 km/h 91 % 0 in /  0.0 mm
03:12 52.2 °F /  11.2 °C 49.6 °F /  9.8 °C 30 in /  1016.8 hPa WSW 11 mph /  17.7 km/h 15 mph /  24.1 km/h 91 % 0 in /  0.0 mm
03:17 52.2 °F /  11.2 °C 49.6 °F /  9.8 °C 30 in /  1016.8 hPa West 8 mph /  12.9 km/h 15 mph /  24.1 km/h 91 % 0 in /  0.0 mm
03:22 52 °F /  11.1 °C 49.5 °F /  9.7 °C 30 in /  1016.8 hPa SW 5 mph /  8.0 km/h 17 mph /  27.4 km/h 91 % 0 in /  0.0 mm
03:27 52 °F /  11.1 °C 49.5 °F /  9.7 °C 30 in /  1016.8 hPa West 8 mph /  12.9 km/h 17 mph /  27.4 km/h 91 % 0 in /  0.0 mm
03:32 52 °F /  11.1 °C 49.5 °F /  9.7 °C 30 in /  1016.8 hPa SW 11 mph /  17.7 km/h 15 mph /  24.1 km/h 91 % 0 in /  0.0 mm
03:42 52 °F /  11.1 °C 49.5 °F /  9.7 °C 30 in /  1016.8 hPa West 6 mph /  9.7 km/h 17 mph /  27.4 km/h 91 % 0 in /  0.0 mm
03:47 52 °F /  11.1 °C 49.5 °F /  9.7 °C 30 in /  1016.8 hPa WSW 8 mph /  12.9 km/h 17 mph /  27.4 km/h 91 % 0 in /  0.0 mm
03:52 52 °F /  11.1 °C 49.5 °F /  9.7 °C 30 in /  1016.8 hPa West 10 mph /  16.1 km/h 13 mph /  20.9 km/h 91 % 0 in /  0.0 mm
03:57 52 °F /  11.1 °C 49.5 °F /  9.7 °C 30 in /  1016.8 hPa WSW 12 mph /  19.3 km/h 13 mph /  20.9 km/h 91 % 0 in /  0.0 mm
04:02 52 °F /  11.1 °C 49.5 °F /  9.7 °C 30 in /  1016.8 hPa SW 7 mph /  11.3 km/h 16 mph /  25.7 km/h 91 % 0 in /  0.0 mm
04:07 52 °F /  11.1 °C 49.5 °F /  9.7 °C 30 in /  1016.8 hPa WNW 8 mph /  12.9 km/h 17 mph /  27.4 km/h 91 % 0 in /  0.0 mm
04:12 52 °F /  11.1 °C 49.5 °F /  9.7 °C 30 in /  1016.8 hPa West 7 mph /  11.3 km/h 17 mph /  27.4 km/h 91 % 0 in /  0.0 mm
04:17 52 °F /  11.1 °C 49.5 °F /  9.7 °C 30 in /  1016.8 hPa WSW 10 mph /  16.1 km/h 17 mph /  27.4 km/h 91 % 0 in /  0.0 mm
04:22 52 °F /  11.1 °C 49.5 °F /  9.7 °C 30 in /  1017.2 hPa WSW 10 mph /  16.1 km/h 17 mph /  27.4 km/h 91 % 0 in /  0.0 mm
04:27 52 °F /  11.1 °C 49.5 °F /  9.7 °C 30 in /  1017.2 hPa West 6 mph /  9.7 km/h 17 mph /  27.4 km/h 91 % 0 in /  0.0 mm
04:32 52 °F /  11.1 °C 49.5 °F /  9.7 °C 30 in /  1017.2 hPa West 7 mph /  11.3 km/h 14 mph /  22.5 km/h 91 % 0 in /  0.0 mm
04:37 52 °F /  11.1 °C 49.5 °F /  9.7 °C 30 in /  1017.2 hPa WSW 6 mph /  9.7 km/h 14 mph /  22.5 km/h 91 % 0 in /  0.0 mm
04:42 52 °F /  11.1 °C 49.5 °F /  9.7 °C 30 in /  1017.2 hPa West 6 mph /  9.7 km/h 16 mph /  25.7 km/h 91 % 0 in /  0.0 mm
04:47 52 °F /  11.1 °C 49.5 °F /  9.7 °C 30 in /  1017.2 hPa West 4 mph /  6.4 km/h 16 mph /  25.7 km/h 91 % 0 in /  0.0 mm
04:52 52 °F /  11.1 °C 49.5 °F /  9.7 °C 30 in /  1017.2 hPa West 5 mph /  8.0 km/h 13 mph /  20.9 km/h 91 % 0 in /  0.0 mm
04:57 52 °F /  11.1 °C 49.5 °F /  9.7 °C 30 in /  1017.2 hPa West 6 mph /  9.7 km/h 13 mph /  20.9 km/h 91 % 0 in /  0.0 mm
05:02 52 °F /  11.1 °C 49.5 °F /  9.7 °C 30 in /  1017.2 hPa West 6 mph /  9.7 km/h 11 mph /  17.7 km/h 91 % 0 in /  0.0 mm
05:07 52 °F /  11.1 °C 49.5 °F /  9.7 °C 30 in /  1017.2 hPa WNW 5 mph /  8.0 km/h 11 mph /  17.7 km/h 91 % 0 in /  0.0 mm
05:12 51.8 °F /  11.0 °C 49.3 °F /  9.6 °C 30.1 in /  1017.5 hPa WNW 3 mph /  4.8 km/h 11 mph /  17.7 km/h 91 % 0 in /  0.0 mm
05:17 51.8 °F /  11.0 °C 49.3 °F /  9.6 °C 30.1 in /  1017.5 hPa West 4 mph /  6.4 km/h 11 mph /  17.7 km/h 91 % 0 in /  0.0 mm
05:22 51.6 °F /  10.9 °C 49.5 °F /  9.7 °C 30.1 in /  1017.5 hPa WSW 8 mph /  12.9 km/h 10 mph /  16.1 km/h 92 % 0 in /  0.0 mm
05:32 51.6 °F /  10.9 °C 49.1 °F /  9.5 °C 30 in /  1017.2 hPa WSW 6 mph /  9.7 km/h 12 mph /  19.3 km/h 91 % 0 in /  0.0 mm
05:37 51.6 °F /  10.9 °C 49.1 °F /  9.5 °C 30.1 in /  1017.5 hPa WSW 6 mph /  9.7 km/h 12 mph /  19.3 km/h 91 % 0 in /  0.0 mm
05:42 51.6 °F /  10.9 °C 49.1 °F /  9.5 °C 30.1 in /  1017.5 hPa WSW 10 mph /  16.1 km/h 12 mph /  19.3 km/h 91 % 0 in /  0.0 mm
05:47 51.6 °F /  10.9 °C 49.1 °F /  9.5 °C 30.1 in /  1017.5 hPa WSW 6 mph /  9.7 km/h 12 mph /  19.3 km/h 91 % 0 in /  0.0 mm
05:52 51.6 °F /  10.9 °C 49.1 °F /  9.5 °C 30.1 in /  1017.5 hPa WSW 6 mph /  9.7 km/h 12 mph /  19.3 km/h 91 % 0 in /  0.0 mm
05:57 51.6 °F /  10.9 °C 49.1 °F /  9.5 °C 30.1 in /  1017.5 hPa West 4 mph /  6.4 km/h 11 mph /  17.7 km/h 91 % 0 in /  0.0 mm
06:02 51.6 °F /  10.9 °C 49.1 °F /  9.5 °C 30.1 in /  1017.5 hPa WSW 6 mph /  9.7 km/h 12 mph /  19.3 km/h 91 % 0 in /  0.0 mm
06:12 51.8 °F /  11.0 °C 49.3 °F /  9.6 °C 30.1 in /  1017.5 hPa WSW 4 mph /  6.4 km/h 12 mph /  19.3 km/h 91 % 0 in /  0.0 mm
06:17 51.6 °F /  10.9 °C 49.1 °F /  9.5 °C 30.1 in /  1017.5 hPa West 3 mph /  4.8 km/h 12 mph /  19.3 km/h 91 % 0 in /  0.0 mm
06:22 51.6 °F /  10.9 °C 49.1 °F /  9.5 °C 30.1 in /  1017.8 hPa WSW 6 mph /  9.7 km/h 11 mph /  17.7 km/h 91 % 0 in /  0.0 mm
06:27 51.8 °F /  11.0 °C 49.3 °F /  9.6 °C 30.1 in /  1017.8 hPa SW 10 mph /  16.1 km/h 10 mph /  16.1 km/h 91 % 0 in /  0.0 mm
06:32 51.8 °F /  11.0 °C 48.9 °F /  9.4 °C 30.1 in /  1017.8 hPa WSW 8 mph /  12.9 km/h 8 mph /  12.9 km/h 90 % 0 in /  0.0 mm
06:37 51.8 °F /  11.0 °C 48.9 °F /  9.4 °C 30.1 in /  1017.8 hPa WNW 4 mph /  6.4 km/h 10 mph /  16.1 km/h 90 % 0 in /  0.0 mm
06:42 52 °F /  11.1 °C 49.1 °F /  9.5 °C 30.1 in /  1017.8 hPa West 4 mph /  6.4 km/h 10 mph /  16.1 km/h 90 % 0 in /  0.0 mm
06:47 52 °F /  11.1 °C 49.1 °F /  9.5 °C 30.1 in /  1017.8 hPa West 3 mph /  4.8 km/h 10 mph /  16.1 km/h 90 % 0 in /  0.0 mm
06:52 52 °F /  11.1 °C 49.1 °F /  9.5 °C 30.1 in /  1017.8 hPa West 3 mph /  4.8 km/h 10 mph /  16.1 km/h 90 % 0 in /  0.0 mm
06:57 52 °F /  11.1 °C 49.1 °F /  9.5 °C 30.1 in /  1017.8 hPa West 8 mph /  12.9 km/h 10 mph /  16.1 km/h 90 % 0 in /  0.0 mm
07:02 52 °F /  11.1 °C 49.1 °F /  9.5 °C 30.1 in /  1017.8 hPa WNW 10 mph /  16.1 km/h 10 mph /  16.1 km/h 90 % 0 in /  0.0 mm
07:12 52.2 °F /  11.2 °C 49.1 °F /  9.5 °C 30.1 in /  1017.8 hPa WNW 2 mph /  3.2 km/h 11 mph /  17.7 km/h 89 % 0 in /  0.0 mm
07:17 52.2 °F /  11.2 °C 49.1 °F /  9.5 °C 30.1 in /  1017.8 hPa West 6 mph /  9.7 km/h 13 mph /  20.9 km/h 89 % 0 in /  0.0 mm
07:22 52.2 °F /  11.2 °C 49.1 °F /  9.5 °C 30.1 in /  1018.2 hPa West 2 mph /  3.2 km/h 13 mph /  20.9 km/h 89 % 0 in /  0.0 mm
07:32 52.2 °F /  11.2 °C 49.1 °F /  9.5 °C 30.1 in /  1018.2 hPa WSW 4 mph /  6.4 km/h 7 mph /  11.3 km/h 89 % 0 in /  0.0 mm
07:42 52.3 °F /  11.3 °C 49.3 °F /  9.6 °C 30.1 in /  1018.5 hPa West 3 mph /  4.8 km/h 8 mph /  12.9 km/h 89 % 0 in /  0.0 mm
07:47 52.3 °F /  11.3 °C 48.9 °F /  9.4 °C 30.1 in /  1018.5 hPa WSW 4 mph /  6.4 km/h 8 mph /  12.9 km/h 88 % 0 in /  0.0 mm
07:52 52.3 °F /  11.3 °C 48.9 °F /  9.4 °C 30.1 in /  1018.5 hPa West 5 mph /  8.0 km/h 9 mph /  14.5 km/h 88 % 0 in /  0.0 mm
08:02 52.3 °F /  11.3 °C 48.9 °F /  9.4 °C 30.1 in /  1018.5 hPa West 7 mph /  11.3 km/h 9 mph /  14.5 km/h 88 % 0 in /  0.0 mm
08:07 52.5 °F /  11.4 °C 49.1 °F /  9.5 °C 30.1 in /  1018.5 hPa NW 5 mph /  8.0 km/h 10 mph /  16.1 km/h 88 % 0 in /  0.0 mm
08:12 52.5 °F /  11.4 °C 49.1 °F /  9.5 °C 30.1 in /  1018.5 hPa West 8 mph /  12.9 km/h 10 mph /  16.1 km/h 88 % 0 in /  0.0 mm
08:17 52.7 °F /  11.5 °C 49.3 °F /  9.6 °C 30.1 in /  1018.5 hPa WNW 3 mph /  4.8 km/h 12 mph /  19.3 km/h 88 % 0 in /  0.0 mm
08:22 52.9 °F /  11.6 °C 49.5 °F /  9.7 °C 30.1 in /  1018.8 hPa WNW 4 mph /  6.4 km/h 12 mph /  19.3 km/h 88 % 0 in /  0.0 mm
08:32 53.1 °F /  11.7 °C 49.6 °F /  9.8 °C 30.1 in /  1018.8 hPa WSW 5 mph /  8.0 km/h 11 mph /  17.7 km/h 88 % 0 in /  0.0 mm
08:37 52.9 °F /  11.6 °C 49.5 °F /  9.7 °C 30.1 in /  1018.8 hPa WNW 8 mph /  12.9 km/h 11 mph /  17.7 km/h 88 % 0 in /  0.0 mm
08:42 53.1 °F /  11.7 °C 49.3 °F /  9.6 °C 30.1 in /  1018.8 hPa WNW 5 mph /  8.0 km/h 12 mph /  19.3 km/h 87 % 0 in /  0.0 mm
08:47 53.1 °F /  11.7 °C 49.6 °F /  9.8 °C 30.1 in /  1018.8 hPa NW 4 mph /  6.4 km/h 12 mph /  19.3 km/h 88 % 0 in /  0.0 mm
08:52 53.1 °F /  11.7 °C 49.3 °F /  9.6 °C 30.1 in /  1019.2 hPa NNW 3 mph /  4.8 km/h 12 mph /  19.3 km/h 87 % 0 in /  0.0 mm
08:57 53.1 °F /  11.7 °C 49.6 °F /  9.8 °C 30.1 in /  1019.2 hPa WNW 2 mph /  3.2 km/h 12 mph /  19.3 km/h 88 % 0 in /  0.0 mm
09:02 53.1 °F /  11.7 °C 49.3 °F /  9.6 °C 30.1 in /  1019.2 hPa West 3 mph /  4.8 km/h 12 mph /  19.3 km/h 87 % 0 in /  0.0 mm
09:07 53.2 °F /  11.8 °C 49.5 °F /  9.7 °C 30.1 in /  1019.2 hPa West 4 mph /  6.4 km/h 15 mph /  24.1 km/h 87 % 0 in /  0.0 mm
09:12 53.2 °F /  11.8 °C 49.5 °F /  9.7 °C 30.1 in /  1019.2 hPa WNW 4 mph /  6.4 km/h 15 mph /  24.1 km/h 87 % 0 in /  0.0 mm
09:17 53.4 °F /  11.9 °C 49.6 °F /  9.8 °C 30.1 in /  1019.2 hPa West 4 mph /  6.4 km/h 12 mph /  19.3 km/h 87 % 0 in /  0.0 mm
09:22 53.8 °F /  12.1 °C 50 °F /  10.0 °C 30.1 in /  1019.5 hPa West 2 mph /  3.2 km/h 12 mph /  19.3 km/h 87 % 0 in /  0.0 mm
09:27 53.4 °F /  11.9 °C 49.3 °F /  9.6 °C 30.1 in /  1019.5 hPa West 7 mph /  11.3 km/h 10 mph /  16.1 km/h 86 % 0 in /  0.0 mm
09:32 53.4 °F /  11.9 °C 49.6 °F /  9.8 °C 30.1 in /  1019.5 hPa WNW 4 mph /  6.4 km/h 10 mph /  16.1 km/h 87 % 0 in /  0.0 mm
09:37 53.4 °F /  11.9 °C 49.6 °F /  9.8 °C 30.1 in /  1019.5 hPa WNW 4 mph /  6.4 km/h 10 mph /  16.1 km/h 87 % 0 in /  0.0 mm
09:42 53.4 °F /  11.9 °C 49.6 °F /  9.8 °C 30.1 in /  1019.5 hPa Calm   8 mph /  12.9 km/h 87 % 0 in /  0.0 mm
09:47 53.2 °F /  11.8 °C 49.1 °F /  9.5 °C 30.1 in /  1019.9 hPa WNW 6 mph /  9.7 km/h 9 mph /  14.5 km/h 86 % 0 in /  0.0 mm
09:52 53.2 °F /  11.8 °C 49.1 °F /  9.5 °C 30.1 in /  1019.9 hPa WNW 6 mph /  9.7 km/h 13 mph /  20.9 km/h 86 % 0 in /  0.0 mm
09:57 53.1 °F /  11.7 °C 48.9 °F /  9.4 °C 30.1 in /  1019.9 hPa West 5 mph /  8.0 km/h 13 mph /  20.9 km/h 86 % 0 in /  0.0 mm
10:02 53.1 °F /  11.7 °C 49.3 °F /  9.6 °C 30.1 in /  1019.9 hPa West 5 mph /  8.0 km/h 13 mph /  20.9 km/h 87 % 0 in /  0.0 mm
10:12 53.1 °F /  11.7 °C 49.3 °F /  9.6 °C 30.1 in /  1019.9 hPa West 1 mph /  1.6 km/h 13 mph /  20.9 km/h 87 % 0 in /  0.0 mm
10:17 52.9 °F /  11.6 °C 48.7 °F /  9.3 °C 30.1 in /  1019.9 hPa NNW 2 mph /  3.2 km/h 13 mph /  20.9 km/h 86 % 0 in /  0.0 mm
10:22 52.9 °F /  11.6 °C 49.1 °F /  9.5 °C 30.1 in /  1020.2 hPa NW 3 mph /  4.8 km/h 13 mph /  20.9 km/h 87 % 0 in /  0.0 mm
10:27 52.9 °F /  11.6 °C 49.1 °F /  9.5 °C 30.1 in /  1020.2 hPa SE 3 mph /  4.8 km/h 13 mph /  20.9 km/h 87 % 0 in /  0.0 mm
10:32 52.7 °F /  11.5 °C 48.6 °F /  9.2 °C 30.1 in /  1020.2 hPa WNW 4 mph /  6.4 km/h 13 mph /  20.9 km/h 86 % 0 in /  0.0 mm
10:42 52.9 °F /  11.6 °C 48.7 °F /  9.3 °C 30.1 in /  1020.2 hPa WNW 7 mph /  11.3 km/h 13 mph /  20.9 km/h 86 % 0 in /  0.0 mm
10:47 52.9 °F /  11.6 °C 49.1 °F /  9.5 °C 30.1 in /  1020.2 hPa WNW 2 mph /  3.2 km/h 13 mph /  20.9 km/h 87 % 0 in /  0.0 mm
10:52 53.1 °F /  11.7 °C 48.9 °F /  9.4 °C 30.1 in /  1020.2 hPa West 8 mph /  12.9 km/h 11 mph /  17.7 km/h 86 % 0 in /  0.0 mm
10:57 53.1 °F /  11.7 °C 48.9 °F /  9.4 °C 30.1 in /  1020.5 hPa NW 6 mph /  9.7 km/h 11 mph /  17.7 km/h 86 % 0 in /  0.0 mm
11:02 53.2 °F /  11.8 °C 49.1 °F /  9.5 °C 30.1 in /  1020.5 hPa WNW 1 mph /  1.6 km/h 11 mph /  17.7 km/h 86 % 0 in /  0.0 mm
11:07 53.2 °F /  11.8 °C 49.1 °F /  9.5 °C 30.1 in /  1020.5 hPa WNW 3 mph /  4.8 km/h 10 mph /  16.1 km/h 86 % 0 in /  0.0 mm
11:12 53.2 °F /  11.8 °C 49.1 °F /  9.5 °C 30.1 in /  1020.5 hPa WNW 6 mph /  9.7 km/h 10 mph /  16.1 km/h 86 % 0 in /  0.0 mm
11:17 53.2 °F /  11.8 °C 49.1 °F /  9.5 °C 30.1 in /  1020.5 hPa West 4 mph /  6.4 km/h 12 mph /  19.3 km/h 86 % 0 in /  0.0 mm
11:22 53.2 °F /  11.8 °C 49.1 °F /  9.5 °C 30.1 in /  1020.5 hPa WNW 6 mph /  9.7 km/h 12 mph /  19.3 km/h 86 % 0 in /  0.0 mm
11:27 53.6 °F /  12.0 °C 49.3 °F /  9.6 °C 30.1 in /  1020.5 hPa Calm   12 mph /  19.3 km/h 85 % 0 in /  0.0 mm
11:32 54 °F /  12.2 °C 49.3 °F /  9.6 °C 30.1 in /  1020.5 hPa West 2 mph /  3.2 km/h 10 mph /  16.1 km/h 84 % 0 in /  0.0 mm
11:37 54.3 °F /  12.4 °C 49.6 °F /  9.8 °C 30.1 in /  1020.5 hPa WNW 7 mph /  11.3 km/h 10 mph /  16.1 km/h 84 % 0 in /  0.0 mm
11:42 54.7 °F /  12.6 °C 50.2 °F /  10.1 °C 30.1 in /  1020.5 hPa Calm   10 mph /  16.1 km/h 85 % 0 in /  0.0 mm
11:47 54.9 °F /  12.7 °C 50.2 °F /  10.1 °C 30.1 in /  1020.5 hPa WNW 2 mph /  3.2 km/h 9 mph /  14.5 km/h 84 % 0 in /  0.0 mm
11:52 55.2 °F /  12.9 °C 50.2 °F /  10.1 °C 30.2 in /  1020.9 hPa NW 3 mph /  4.8 km/h 9 mph /  14.5 km/h 83 % 0 in /  0.0 mm
11:57 55.6 °F /  13.1 °C 50.2 °F /  10.1 °C 30.2 in /  1020.9 hPa Calm   9 mph /  14.5 km/h 82 % 0 in /  0.0 mm
12:02 55.6 °F /  13.1 °C 49.8 °F /  9.9 °C 30.2 in /  1020.9 hPa NNW 5 mph /  8.0 km/h 7 mph /  11.3 km/h 81 % 0 in /  0.0 mm
12:07 55 °F /  12.8 °C 48.6 °F /  9.2 °C 30.2 in /  1020.9 hPa WNW 6 mph /  9.7 km/h 9 mph /  14.5 km/h 79 % 0 in /  0.0 mm
12:12 55 °F /  12.8 °C 48.6 °F /  9.2 °C 30.2 in /  1020.9 hPa NNW 4 mph /  6.4 km/h 9 mph /  14.5 km/h 79 % 0 in /  0.0 mm
12:17 55.2 °F /  12.9 °C 48.7 °F /  9.3 °C 30.2 in /  1020.9 hPa WNW 2 mph /  3.2 km/h 8 mph /  12.9 km/h 79 % 0 in /  0.0 mm
12:22 55.6 °F /  13.1 °C 49.1 °F /  9.5 °C 30.2 in /  1020.9 hPa NW 5 mph /  8.0 km/h 8 mph /  12.9 km/h 79 % 0 in /  0.0 mm
12:27 55.6 °F /  13.1 °C 49.1 °F /  9.5 °C 30.2 in /  1020.9 hPa NE 4 mph /  6.4 km/h 8 mph /  12.9 km/h 79 % 0 in /  0.0 mm
12:32 55.6 °F /  13.1 °C 49.5 °F /  9.7 °C 30.2 in /  1020.9 hPa WNW 2 mph /  3.2 km/h 8 mph /  12.9 km/h 80 % 0 in /  0.0 mm
12:42 55.8 °F /  13.2 °C 48.7 °F /  9.3 °C 30.2 in /  1020.9 hPa West 5 mph /  8.0 km/h 9 mph /  14.5 km/h 77 % 0 in /  0.0 mm
12:47 55.9 °F /  13.3 °C 49.1 °F /  9.5 °C 30.2 in /  1020.9 hPa NW 2 mph /  3.2 km/h 9 mph /  14.5 km/h 78 % 0 in /  0.0 mm
12:52 56.1 °F /  13.4 °C 48.9 °F /  9.4 °C 30.2 in /  1021.2 hPa NNW 1 mph /  1.6 km/h 10 mph /  16.1 km/h 77 % 0 in /  0.0 mm
12:57 56.3 °F /  13.5 °C 48.9 °F /  9.4 °C 30.2 in /  1021.2 hPa NNW 9 mph /  14.5 km/h 10 mph /  16.1 km/h 76 % 0 in /  0.0 mm
13:02 56.3 °F /  13.5 °C 48.9 °F /  9.4 °C 30.2 in /  1021.2 hPa WNW 4 mph /  6.4 km/h 12 mph /  19.3 km/h 76 % 0 in /  0.0 mm
13:07 56.1 °F /  13.4 °C 48.4 °F /  9.1 °C 30.2 in /  1021.2 hPa NW 3 mph /  4.8 km/h 12 mph /  19.3 km/h 75 % 0 in /  0.0 mm
13:12 56.1 °F /  13.4 °C 48.7 °F /  9.3 °C 30.2 in /  1021.2 hPa NNW 8 mph /  12.9 km/h 12 mph /  19.3 km/h 76 % 0 in /  0.0 mm
13:17 56.5 °F /  13.6 °C 48.9 °F /  9.4 °C 30.2 in /  1021.2 hPa North 2 mph /  3.2 km/h 10 mph /  16.1 km/h 76 % 0 in /  0.0 mm
13:22 56.7 °F /  13.7 °C 48.7 °F /  9.3 °C 30.2 in /  1021.2 hPa NW 4 mph /  6.4 km/h 8 mph /  12.9 km/h 75 % 0 in /  0.0 mm
13:27 57 °F /  13.9 °C 48.7 °F /  9.3 °C 30.2 in /  1021.2 hPa NW 3 mph /  4.8 km/h 11 mph /  17.7 km/h 74 % 0 in /  0.0 mm
13:32 56.8 °F /  13.8 °C 48.2 °F /  9.0 °C 30.2 in /  1021.2 hPa WNW 5 mph /  8.0 km/h 11 mph /  17.7 km/h 73 % 0 in /  0.0 mm
13:37 56.8 °F /  13.8 °C 48.6 °F /  9.2 °C 30.2 in /  1021.2 hPa North 8 mph /  12.9 km/h 13 mph /  20.9 km/h 74 % 0 in /  0.0 mm
13:42 57.4 °F /  14.1 °C 49.1 °F /  9.5 °C 30.2 in /  1021.2 hPa WNW 8 mph /  12.9 km/h 13 mph /  20.9 km/h 74 % 0 in /  0.0 mm
13:47 57.2 °F /  14.0 °C 48.2 °F /  9.0 °C 30.2 in /  1021.2 hPa WNW 6 mph /  9.7 km/h 14 mph /  22.5 km/h 72 % 0 in /  0.0 mm
13:52 57 °F /  13.9 °C 48 °F /  8.9 °C 30.2 in /  1021.2 hPa NW 8 mph /  12.9 km/h 14 mph /  22.5 km/h 72 % 0 in /  0.0 mm
13:57 57.4 °F /  14.1 °C 48.4 °F /  9.1 °C 30.2 in /  1021.2 hPa NW 5 mph /  8.0 km/h 14 mph /  22.5 km/h 72 % 0 in /  0.0 mm
14:02 57.9 °F /  14.4 °C 48.9 °F /  9.4 °C 30.2 in /  1021.2 hPa NW 4 mph /  6.4 km/h 12 mph /  19.3 km/h 72 % 0 in /  0.0 mm
14:12 57.4 °F /  14.1 °C 49.1 °F /  9.5 °C 30.2 in /  1021.2 hPa West 2 mph /  3.2 km/h 11 mph /  17.7 km/h 74 % 0 in /  0.0 mm
14:17 57.4 °F /  14.1 °C 48.7 °F /  9.3 °C 30.2 in /  1021.2 hPa WNW 6 mph /  9.7 km/h 11 mph /  17.7 km/h 73 % 0 in /  0.0 mm
14:22 57.4 °F /  14.1 °C 48.7 °F /  9.3 °C 30.2 in /  1021.2 hPa NW 6 mph /  9.7 km/h 10 mph /  16.1 km/h 73 % 0 in /  0.0 mm
14:27 57.7 °F /  14.3 °C 48.7 °F /  9.3 °C 30.2 in /  1021.2 hPa WNW 7 mph /  11.3 km/h 10 mph /  16.1 km/h 72 % 0 in /  0.0 mm
14:32 57.6 °F /  14.2 °C 48.2 °F /  9.0 °C 30.2 in /  1021.2 hPa WNW 13 mph /  20.9 km/h 13 mph /  20.9 km/h 71 % 0 in /  0.0 mm
14:42 57 °F /  13.9 °C 48 °F /  8.9 °C 30.2 in /  1021.2 hPa NW 5 mph /  8.0 km/h 13 mph /  20.9 km/h 72 % 0 in /  0.0 mm
14:52 57.2 °F /  14.0 °C 48.9 °F /  9.4 °C 30.2 in /  1021.2 hPa NW 2 mph /  3.2 km/h 13 mph /  20.9 km/h 74 % 0 in /  0.0 mm
14:57 57 °F /  13.9 °C 48.4 °F /  9.1 °C 30.2 in /  1021.2 hPa WNW 3 mph /  4.8 km/h 10 mph /  16.1 km/h 73 % 0 in /  0.0 mm
15:02 56.8 °F /  13.8 °C 48.6 °F /  9.2 °C 30.2 in /  1021.2 hPa WNW 7 mph /  11.3 km/h 10 mph /  16.1 km/h 74 % 0 in /  0.0 mm
15:12 57.2 °F /  14.0 °C 48.9 °F /  9.4 °C 30.2 in /  1021.2 hPa NNW 3 mph /  4.8 km/h 11 mph /  17.7 km/h 74 % 0 in /  0.0 mm
15:17 57.9 °F /  14.4 °C 49.3 °F /  9.6 °C 30.2 in /  1021.2 hPa NW 6 mph /  9.7 km/h 11 mph /  17.7 km/h 73 % 0 in /  0.0 mm
15:22 58.5 °F /  14.7 °C 49.1 °F /  9.5 °C 30.2 in /  1021.2 hPa WNW 9 mph /  14.5 km/h 10 mph /  16.1 km/h 71 % 0 in /  0.0 mm
15:27 58.8 °F /  14.9 °C 49.8 °F /  9.9 °C 30.2 in /  1021.2 hPa NNE 6 mph /  9.7 km/h 10 mph /  16.1 km/h 72 % 0 in /  0.0 mm
15:32 59 °F /  15.0 °C 48.4 °F /  9.1 °C 30.2 in /  1021.2 hPa WSW 10 mph /  16.1 km/h 11 mph /  17.7 km/h 68 % 0 in /  0.0 mm
15:37 59 °F /  15.0 °C 47.7 °F /  8.7 °C 30.2 in /  1021.2 hPa NW 2 mph /  3.2 km/h 12 mph /  19.3 km/h 66 % 0 in /  0.0 mm
15:47 59.2 °F /  15.1 °C 47.8 °F /  8.8 °C 30.2 in /  1020.9 hPa WNW 11 mph /  17.7 km/h 12 mph /  19.3 km/h 66 % 0 in /  0.0 mm
15:57 59.5 °F /  15.3 °C 48.6 °F /  9.2 °C 30.2 in /  1020.9 hPa North 3 mph /  4.8 km/h 11 mph /  17.7 km/h 67 % 0 in /  0.0 mm
16:02 59.2 °F /  15.1 °C 49.1 °F /  9.5 °C 30.2 in /  1020.9 hPa WNW 2 mph /  3.2 km/h 11 mph /  17.7 km/h 69 % 0 in /  0.0 mm
16:12 57.9 °F /  14.4 °C 47.8 °F /  8.8 °C 30.2 in /  1020.9 hPa WNW 5 mph /  8.0 km/h 10 mph /  16.1 km/h 69 % 0 in /  0.0 mm
16:17 57.7 °F /  14.3 °C 48 °F /  8.9 °C 30.2 in /  1020.9 hPa NW 3 mph /  4.8 km/h 10 mph /  16.1 km/h 70 % 0 in /  0.0 mm
16:22 57.6 °F /  14.2 °C 48.2 °F /  9.0 °C 30.2 in /  1020.9 hPa West 1 mph /  1.6 km/h 10 mph /  16.1 km/h 71 % 0 in /  0.0 mm
16:27 57.4 °F /  14.1 °C 48 °F /  8.9 °C 30.2 in /  1020.9 hPa Calm   10 mph /  16.1 km/h 71 % 0 in /  0.0 mm
16:32 57.2 °F /  14.0 °C 48.2 °F /  9.0 °C 30.2 in /  1020.9 hPa NW 5 mph /  8.0 km/h 8 mph /  12.9 km/h 72 % 0 in /  0.0 mm
16:37 57.2 °F /  14.0 °C 48.6 °F /  9.2 °C 30.2 in /  1020.9 hPa NNW 2 mph /  3.2 km/h 6 mph /  9.7 km/h 73 % 0 in /  0.0 mm
16:42 57 °F /  13.9 °C 48.7 °F /  9.3 °C 30.2 in /  1020.9 hPa NW 3 mph /  4.8 km/h 7 mph /  11.3 km/h 74 % 0 in /  0.0 mm
16:47 57.2 °F /  14.0 °C 48.9 °F /  9.4 °C 30.2 in /  1020.9 hPa West 2 mph /  3.2 km/h 7 mph /  11.3 km/h 74 % 0 in /  0.0 mm
16:52 57.2 °F /  14.0 °C 48.6 °F /  9.2 °C 30.2 in /  1020.9 hPa NNE 2 mph /  3.2 km/h 7 mph /  11.3 km/h 73 % 0 in /  0.0 mm
16:57 57.2 °F /  14.0 °C 48.9 °F /  9.4 °C 30.2 in /  1020.9 hPa NW 5 mph /  8.0 km/h 6 mph /  9.7 km/h 74 % 0 in /  0.0 mm
17:02 57.2 °F /  14.0 °C 48.9 °F /  9.4 °C 30.2 in /  1020.9 hPa WNW 2 mph /  3.2 km/h 8 mph /  12.9 km/h 74 % 0 in /  0.0 mm
17:07 57 °F /  13.9 °C 48.7 °F /  9.3 °C 30.2 in /  1020.9 hPa WNW 1 mph /  1.6 km/h 8 mph /  12.9 km/h 74 % 0 in /  0.0 mm
17:12 57 °F /  13.9 °C 49.1 °F /  9.5 °C 30.2 in /  1020.9 hPa NNW 6 mph /  9.7 km/h 8 mph /  12.9 km/h 75 % 0 in /  0.0 mm
17:17 56.8 °F /  13.8 °C 48.6 °F /  9.2 °C 30.2 in /  1020.9 hPa WNW 3 mph /  4.8 km/h 7 mph /  11.3 km/h 74 % 0 in /  0.0 mm
17:22 56.7 °F /  13.7 °C 48.7 °F /  9.3 °C 30.2 in /  1020.9 hPa NNW 4 mph /  6.4 km/h 7 mph /  11.3 km/h 75 % 0 in /  0.0 mm
17:32 56.5 °F /  13.6 °C 48.9 °F /  9.4 °C 30.2 in /  1020.9 hPa NW 1 mph /  1.6 km/h 7 mph /  11.3 km/h 76 % 0 in /  0.0 mm
17:37 56.3 °F /  13.5 °C 49.1 °F /  9.5 °C 30.2 in /  1020.9 hPa NNW 4 mph /  6.4 km/h 7 mph /  11.3 km/h 77 % 0 in /  0.0 mm
17:42 56.1 °F /  13.4 °C 48.9 °F /  9.4 °C 30.2 in /  1020.9 hPa WNW 5 mph /  8.0 km/h 6 mph /  9.7 km/h 77 % 0 in /  0.0 mm
17:47 56.1 °F /  13.4 °C 48.9 °F /  9.4 °C 30.2 in /  1020.9 hPa NW 2 mph /  3.2 km/h 6 mph /  9.7 km/h 77 % 0 in /  0.0 mm
17:52 56.1 °F /  13.4 °C 48.9 °F /  9.4 °C 30.2 in /  1020.9 hPa WNW 3 mph /  4.8 km/h 6 mph /  9.7 km/h 77 % 0 in /  0.0 mm
17:57 56.1 °F /  13.4 °C 48.9 °F /  9.4 °C 30.2 in /  1020.9 hPa West 3 mph /  4.8 km/h 6 mph /  9.7 km/h 77 % 0 in /  0.0 mm
18:02 56.1 °F /  13.4 °C 48.9 °F /  9.4 °C 30.2 in /  1020.9 hPa West 1 mph /  1.6 km/h 5 mph /  8.0 km/h 77 % 0 in /  0.0 mm
18:07 56.1 °F /  13.4 °C 48.9 °F /  9.4 °C 30.2 in /  1020.9 hPa WNW 2 mph /  3.2 km/h 6 mph /  9.7 km/h 77 % 0 in /  0.0 mm
18:12 56.1 °F /  13.4 °C 48.9 °F /  9.4 °C 30.2 in /  1020.9 hPa WNW 1 mph /  1.6 km/h 6 mph /  9.7 km/h 77 % 0 in /  0.0 mm
18:17 56.1 °F /  13.4 °C 49.3 °F /  9.6 °C 30.2 in /  1020.9 hPa Calm   4 mph /  6.4 km/h 78 % 0 in /  0.0 mm
18:22 56.1 °F /  13.4 °C 49.3 °F /  9.6 °C 30.2 in /  1020.9 hPa West 1 mph /  1.6 km/h 4 mph /  6.4 km/h 78 % 0 in /  0.0 mm
18:27 56.1 °F /  13.4 °C 48.9 °F /  9.4 °C 30.2 in /  1020.9 hPa WNW 3 mph /  4.8 km/h 6 mph /  9.7 km/h 77 % 0 in /  0.0 mm
18:37 56.1 °F /  13.4 °C 49.3 °F /  9.6 °C 30.2 in /  1020.9 hPa Calm   6 mph /  9.7 km/h 78 % 0 in /  0.0 mm
18:42 55.9 °F /  13.3 °C 49.1 °F /  9.5 °C 30.2 in /  1020.9 hPa West 1 mph /  1.6 km/h 3 mph /  4.8 km/h 78 % 0 in /  0.0 mm
18:47 55.9 °F /  13.3 °C 49.1 °F /  9.5 °C 30.2 in /  1020.9 hPa WNW 1 mph /  1.6 km/h 3 mph /  4.8 km/h 78 % 0 in /  0.0 mm
18:52 55.8 °F /  13.2 °C 48.9 °F /  9.4 °C 30.2 in /  1020.9 hPa WSW 1 mph /  1.6 km/h 3 mph /  4.8 km/h 78 % 0 in /  0.0 mm
18:57 55.8 °F /  13.2 °C 49.3 °F /  9.6 °C 30.2 in /  1021.2 hPa WNW 1 mph /  1.6 km/h 3 mph /  4.8 km/h 79 % 0 in /  0.0 mm
19:02 55.6 °F /  13.1 °C 49.5 °F /  9.7 °C 30.2 in /  1021.2 hPa SW 2 mph /  3.2 km/h 3 mph /  4.8 km/h 80 % 0 in /  0.0 mm
19:07 55.4 °F /  13.0 °C 49.3 °F /  9.6 °C 30.2 in /  1021.2 hPa Calm   4 mph /  6.4 km/h 80 % 0 in /  0.0 mm
19:12 55.2 °F /  12.9 °C 49.5 °F /  9.7 °C 30.2 in /  1021.2 hPa NW 1 mph /  1.6 km/h 4 mph /  6.4 km/h 81 % 0 in /  0.0 mm
19:17 55.2 °F /  12.9 °C 49.5 °F /  9.7 °C 30.2 in /  1021.2 hPa Calm   4 mph /  6.4 km/h 81 % 0 in /  0.0 mm
19:27 54.9 °F /  12.7 °C 49.1 °F /  9.5 °C 30.2 in /  1021.2 hPa NW 4 mph /  6.4 km/h 12 mph /  19.3 km/h 81 % 0 in /  0.0 mm
19:32 54.7 °F /  12.6 °C 49.3 °F /  9.6 °C 30.2 in /  1021.2 hPa WNW 1 mph /  1.6 km/h 12 mph /  19.3 km/h 82 % 0 in /  0.0 mm
19:37 54.3 °F /  12.4 °C 49.6 °F /  9.8 °C 30.2 in /  1021.2 hPa NE 3 mph /  4.8 km/h 12 mph /  19.3 km/h 84 % 0 in /  0.0 mm
19:42 54 °F /  12.2 °C 50.2 °F /  10.1 °C 30.2 in /  1021.2 hPa NE 1 mph /  1.6 km/h 9 mph /  14.5 km/h 87 % 0 in /  0.0 mm
19:52 53.6 °F /  12.0 °C 50.4 °F /  10.2 °C 30.2 in /  1021.2 hPa Calm   6 mph /  9.7 km/h 89 % 0 in /  0.0 mm
19:57 53.6 °F /  12.0 °C 50.4 °F /  10.2 °C 30.2 in /  1021.2 hPa Calm   3 mph /  4.8 km/h 89 % 0 in /  0.0 mm
20:02 53.4 °F /  11.9 °C 50.2 °F /  10.1 °C 30.2 in /  1021.2 hPa Calm   1 mph /  1.6 km/h 89 % 0 in /  0.0 mm
20:07 53.4 °F /  11.9 °C 50.2 °F /  10.1 °C 30.2 in /  1021.2 hPa Calm   1 mph /  1.6 km/h 89 % 0 in /  0.0 mm
20:12 53.4 °F /  11.9 °C 50.2 °F /  10.1 °C 30.2 in /  1021.2 hPa NNE 1 mph /  1.6 km/h 2 mph /  3.2 km/h 89 % 0 in /  0.0 mm
20:17 53.4 °F /  11.9 °C 50.2 °F /  10.1 °C 30.2 in /  1021.2 hPa Calm   2 mph /  3.2 km/h 89 % 0 in /  0.0 mm
20:22 53.4 °F /  11.9 °C 50.2 °F /  10.1 °C 30.2 in /  1021.2 hPa ENE 1 mph /  1.6 km/h 2 mph /  3.2 km/h 89 % 0 in /  0.0 mm
20:27 53.6 °F /  12.0 °C 50.4 °F /  10.2 °C 30.2 in /  1021.2 hPa Calm   2 mph /  3.2 km/h 89 % 0 in /  0.0 mm
20:32 53.6 °F /  12.0 °C 50.4 °F /  10.2 °C 30.2 in /  1021.2 hPa Calm   1 mph /  1.6 km/h 89 % 0 in /  0.0 mm
20:42 53.4 °F /  11.9 °C 50.5 °F /  10.3 °C 30.2 in /  1021.2 hPa Calm     90 % 0 in /  0.0 mm
20:47 53.2 °F /  11.8 °C 50.4 °F /  10.2 °C 30.2 in /  1021.6 hPa Calm     90 % 0 in /  0.0 mm
20:52 53.2 °F /  11.8 °C 50.4 °F /  10.2 °C 30.2 in /  1021.6 hPa Calm   1 mph /  1.6 km/h 90 % 0 in /  0.0 mm
20:57 53.2 °F /  11.8 °C 50.4 °F /  10.2 °C 30.2 in /  1021.6 hPa Calm   1 mph /  1.6 km/h 90 % 0 in /  0.0 mm
21:02 53.2 °F /  11.8 °C 50.4 °F /  10.2 °C 30.2 in /  1021.6 hPa Calm     90 % 0 in /  0.0 mm
21:07 53.1 °F /  11.7 °C 50.5 °F /  10.3 °C 30.2 in /  1021.6 hPa Calm     91 % 0 in /  0.0 mm
21:12 53.1 °F /  11.7 °C 50.5 °F /  10.3 °C 30.2 in /  1021.6 hPa Calm     91 % 0 in /  0.0 mm
21:17 53.1 °F /  11.7 °C 50.5 °F /  10.3 °C 30.2 in /  1021.6 hPa Calm   1 mph /  1.6 km/h 91 % 0 in /  0.0 mm
21:22 52.9 °F /  11.6 °C 50.4 °F /  10.2 °C 30.2 in /  1021.6 hPa Calm   1 mph /  1.6 km/h 91 % 0 in /  0.0 mm
21:32 52.9 °F /  11.6 °C 50.5 °F /  10.3 °C 30.2 in /  1021.6 hPa Calm   1 mph /  1.6 km/h 92 % 0.01 in /  0.3 mm
21:37 52.9 °F /  11.6 °C 50.5 °F /  10.3 °C 30.2 in /  1021.6 hPa WNW 2 mph /  3.2 km/h 2 mph /  3.2 km/h 92 % 0.01 in /  0.3 mm
21:42 52.5 °F /  11.4 °C 50.2 °F /  10.1 °C 30.2 in /  1021.6 hPa Calm   4 mph /  6.4 km/h 92 % 0.02 in /  0.5 mm
21:47 52.5 °F /  11.4 °C 50.2 °F /  10.1 °C 30.2 in /  1021.6 hPa WNW 1 mph /  1.6 km/h 4 mph /  6.4 km/h 92 % 0.02 in /  0.5 mm
21:57 52.5 °F /  11.4 °C 50.2 °F /  10.1 °C 30.2 in /  1021.9 hPa Calm   2 mph /  3.2 km/h 92 % 0.03 in /  0.8 mm
22:02 52.3 °F /  11.3 °C 50 °F /  10.0 °C 30.2 in /  1021.9 hPa Calm   2 mph /  3.2 km/h 92 % 0.03 in /  0.8 mm
22:07 52.3 °F /  11.3 °C 50.4 °F /  10.2 °C 30.2 in /  1021.9 hPa Calm   1 mph /  1.6 km/h 93 % 0.03 in /  0.8 mm
22:12 52.3 °F /  11.3 °C 50.4 °F /  10.2 °C 30.2 in /  1021.9 hPa Calm   1 mph /  1.6 km/h 93 % 0.03 in /  0.8 mm
22:22 52.2 °F /  11.2 °C 50.2 °F /  10.1 °C 30.2 in /  1021.9 hPa Calm     93 % 0.03 in /  0.8 mm
22:27 52 °F /  11.1 °C 50 °F /  10.0 °C 30.2 in /  1021.9 hPa Calm   1 mph /  1.6 km/h 93 % 0.02 in /  0.5 mm
22:37 52 °F /  11.1 °C 50.4 °F /  10.2 °C 30.2 in /  1021.9 hPa Calm   1 mph /  1.6 km/h 94 % 0.02 in /  0.5 mm
22:42 51.8 °F /  11.0 °C 50.2 °F /  10.1 °C 30.2 in /  1021.9 hPa Calm   1 mph /  1.6 km/h 94 % 0.02 in /  0.5 mm
22:47 51.6 °F /  10.9 °C 50 °F /  10.0 °C 30.2 in /  1021.9 hPa Calm   1 mph /  1.6 km/h 94 % 0.01 in /  0.3 mm
22:52 51.6 °F /  10.9 °C 50 °F /  10.0 °C 30.2 in /  1021.9 hPa Calm   2 mph /  3.2 km/h 94 % 0.01 in /  0.3 mm
22:57 51.4 °F /  10.8 °C 49.8 °F /  9.9 °C 30.2 in /  1021.9 hPa Calm   2 mph /  3.2 km/h 94 % 0 in /  0.0 mm
23:02 51.3 °F /  10.7 °C 49.6 °F /  9.8 °C 30.2 in /  1021.9 hPa Calm   2 mph /  3.2 km/h 94 % 0 in /  0.0 mm
23:07 51.3 °F /  10.7 °C 49.6 °F /  9.8 °C 30.2 in /  1021.9 hPa Calm     94 % 0 in /  0.0 mm
23:12 51.3 °F /  10.7 °C 49.6 °F /  9.8 °C 30.2 in /  1021.9 hPa Calm   1 mph /  1.6 km/h 94 % 0 in /  0.0 mm
23:17 51.1 °F /  10.6 °C 49.5 °F /  9.7 °C 30.2 in /  1021.9 hPa Calm   1 mph /  1.6 km/h 94 % 0 in /  0.0 mm
23:22 50.7 °F /  10.4 °C 49.1 °F /  9.5 °C 30.2 in /  1021.9 hPa Calm   1 mph /  1.6 km/h 94 % 0 in /  0.0 mm
23:32 50.5 °F /  10.3 °C 48.9 °F /  9.4 °C 30.2 in /  1021.9 hPa Calm   1 mph /  1.6 km/h 94 % 0 in /  0.0 mm
23:37 50.4 °F /  10.2 °C 48.7 °F /  9.3 °C 30.2 in /  1021.9 hPa Calm     94 % 0 in /  0.0 mm
23:42 50.4 °F /  10.2 °C 48.9 °F /  9.4 °C 30.2 in /  1021.9 hPa Calm   1 mph /  1.6 km/h 95 % 0 in /  0.0 mm
23:47 50.2 °F /  10.1 °C 48.7 °F /  9.3 °C 30.2 in /  1021.9 hPa Calm   1 mph /  1.6 km/h 95 % 0 in /  0.0 mm
23:52 50 °F /  10.0 °C 48.4 °F /  9.1 °C 30.2 in /  1021.9 hPa Calm   1 mph /  1.6 km/h 94 % 0 in /  0.0 mm
23:57 49.6 °F /  9.8 °C 48.2 °F /  9.0 °C 30.2 in /  1021.9 hPa Calm     95 % 0 in /  0.0 mm
Meteo18
Compliments of Weather Underground - 4 mb

Script developed by  Jim McMurry - jmcmurry@mwt.net Adapted for the template by  Wim van der Kuil - Leuven-Template.eu

You find our weather info also at:

European Weather Network

Weather Underground

Equipment we use:

Weather-station
Davis Vue

Weather-program
Meteohub

Weather-server
Raspberry PI 2 B+

Provider
1 and 1

Davis Vue

Meteohub

Raspberry PI 2 B+

1 and 1